createdAt,value
2023-05-19T00:04:23.390Z,101161.72
2023-05-19T00:09:17.012Z,101165.38
2023-05-19T00:14:11.133Z,101060.59
2023-05-19T00:19:10.371Z,101114.72
2023-05-19T00:24:03.929Z,101137.97
2023-05-19T00:29:00.034Z,101129.13
2023-05-19T00:33:56.378Z,101059.94
2023-05-19T00:38:55.550Z,100956.53
2023-05-19T00:43:49.557Z,101161.34
2023-05-19T00:48:44.765Z,101145.84
2023-05-19T00:53:38.078Z,101197.56
2023-05-19T00:58:34.922Z,101060.84
2023-05-19T01:03:31.124Z,101192.56
2023-05-19T01:08:25.090Z,101189.84
2023-05-19T01:13:20.928Z,100992.78
2023-05-19T01:18:21.328Z,101180.28
2023-05-19T01:23:29.248Z,101161.81
2023-05-19T01:28:59.784Z,101191.69
2023-05-19T01:33:56.057Z,101194.59
2023-05-19T01:38:52.346Z,101082.44
2023-05-19T01:43:46.451Z,101135.94
2023-05-19T01:48:40.345Z,101157.97
2023-05-19T01:53:35.044Z,101134.78
2023-05-19T01:58:39.037Z,101179.06
2023-05-19T02:03:44.186Z,101043.28
2023-05-19T02:08:45.586Z,101081.84
2023-05-19T02:13:50.314Z,101189.47
2023-05-19T02:18:45.668Z,101054.50
2023-05-19T02:23:41.340Z,101168.72
2023-05-19T02:28:34.541Z,101094.91
2023-05-19T02:33:27.826Z,101132.13
2023-05-19T02:38:21.478Z,101185.56
2023-05-19T02:43:16.145Z,101221.84
2023-05-19T02:48:09.385Z,101139.63
2023-05-19T02:53:02.613Z,101146.84
2023-05-19T02:57:55.826Z,101255.50
2023-05-19T03:02:53.126Z,101192.59
2023-05-19T03:07:46.845Z,101236.59
2023-05-19T03:12:40.107Z,101267.53
2023-05-19T03:17:34.530Z,101272.53
2023-05-19T03:22:29.386Z,101094.56
2023-05-19T03:27:22.659Z,101285.22
2023-05-19T03:32:16.027Z,101238.78
2023-05-19T03:37:10.884Z,101190.13
2023-05-19T03:42:10.035Z,101307.06
2023-05-19T03:47:07.167Z,101225.13
2023-05-19T03:52:18.441Z,101173.09
2023-05-19T03:57:20.615Z,101313.69
2023-05-19T04:02:14.149Z,101315.19
2023-05-19T04:07:08.013Z,101240.53
2023-05-19T04:12:01.847Z,101230.00
2023-05-19T04:16:56.432Z,101221.16
2023-05-19T04:21:49.767Z,101325.03
2023-05-19T04:26:46.134Z,101298.47
2023-05-19T04:31:42.211Z,101226.88
2023-05-19T04:36:40.769Z,101192.19
2023-05-19T04:41:34.988Z,101170.47
2023-05-19T04:46:31.170Z,101300.56
2023-05-19T04:51:29.225Z,101264.38
2023-05-19T04:56:27.605Z,101339.59
2023-05-19T05:01:26.277Z,101224.09
2023-05-19T05:06:21.034Z,101345.13
2023-05-19T05:11:15.611Z,101349.03
2023-05-19T05:16:12.324Z,101157.06
2023-05-19T05:21:07.187Z,101317.91
2023-05-19T05:26:07.157Z,101215.78
2023-05-19T05:31:00.982Z,101332.84
2023-05-19T05:35:55.639Z,101282.47
2023-05-19T05:40:50.361Z,101210.09
2023-05-19T05:45:44.331Z,101376.81
2023-05-19T05:50:38.861Z,101309.38
2023-05-19T05:55:36.831Z,101299.81
2023-05-19T06:00:31.937Z,101257.56
2023-05-19T06:05:25.605Z,101265.03
2023-05-19T06:10:21.448Z,101307.44
2023-05-19T06:15:17.493Z,101275.09
2023-05-19T06:20:36.922Z,101405.41
2023-05-19T06:25:35.106Z,101316.88
2023-05-19T06:30:29.958Z,101412.78
2023-05-19T06:35:34.800Z,101381.16
2023-05-19T06:40:28.420Z,101351.75
2023-05-19T06:45:25.365Z,101392.97
2023-05-19T06:50:21.140Z,101313.78
2023-05-19T06:55:16.301Z,101419.69
2023-05-19T07:00:13.406Z,101387.06
2023-05-19T07:05:11.594Z,101388.69
2023-05-19T07:10:08.538Z,101389.00
2023-05-19T07:15:02.049Z,101264.59
2023-05-19T07:19:55.674Z,101406.56
2023-05-19T07:24:52.545Z,101404.53
2023-05-19T07:29:58.041Z,101381.59
2023-05-19T07:34:53.819Z,101377.22
2023-05-19T07:39:47.074Z,101367.50
2023-05-19T07:44:58.336Z,101415.75
2023-05-19T07:49:52.066Z,101390.66
2023-05-19T07:54:45.648Z,101406.66
2023-05-19T07:59:38.831Z,101413.81
2023-05-19T08:04:33.683Z,101311.56
2023-05-19T08:09:28.544Z,101318.25
2023-05-19T08:14:22.949Z,101400.88
2023-05-19T08:19:16.766Z,101360.41
2023-05-19T08:24:11.697Z,101389.06
2023-05-19T08:29:04.863Z,101292.69
2023-05-19T08:33:58.082Z,101399.53
2023-05-19T08:38:51.612Z,101325.00
2023-05-19T08:43:46.323Z,101370.44
2023-05-19T08:48:48.195Z,101392.97
2023-05-19T08:53:45.414Z,101250.13
2023-05-19T08:58:40.600Z,101378.72
2023-05-19T09:03:38.471Z,101342.72
2023-05-19T09:08:31.862Z,101386.69
2023-05-19T09:13:32.794Z,101383.41
2023-05-19T09:18:27.295Z,101376.66
2023-05-19T09:23:22.036Z,101284.91
2023-05-19T09:28:16.085Z,101372.31
2023-05-19T09:33:13.123Z,101334.59
2023-05-19T09:38:19.326Z,101276.66
2023-05-19T09:43:14.214Z,101213.59
2023-05-19T09:48:10.269Z,101363.03
2023-05-19T09:53:09.145Z,101334.81
2023-05-19T09:58:04.347Z,101353.38
2023-05-19T10:02:59.942Z,101330.88
2023-05-19T10:07:56.689Z,101288.84
2023-05-19T10:12:51.087Z,101349.81
2023-05-19T10:17:48.370Z,101349.13
2023-05-19T10:22:51.056Z,101305.88
2023-05-19T10:27:48.575Z,101288.13
2023-05-19T10:32:44.064Z,101229.97
2023-05-19T10:37:46.413Z,101283.75
2023-05-19T10:42:54.301Z,101325.59
2023-05-19T10:47:51.706Z,101254.84
2023-05-19T10:52:45.662Z,101278.03
2023-05-19T10:57:56.184Z,101293.38
2023-05-19T11:02:56.315Z,101159.97
2023-05-19T11:07:57.653Z,101302.44
2023-05-19T11:12:53.171Z,101212.44
2023-05-19T11:17:50.794Z,101229.31
2023-05-19T11:23:01.812Z,101218.00
2023-05-19T11:27:59.883Z,101263.56
2023-05-19T11:33:01.894Z,101211.59
2023-05-19T11:37:56.136Z,101239.41
2023-05-19T11:42:49.362Z,101262.16
2023-05-19T11:48:00.091Z,101255.84
2023-05-19T11:52:57.195Z,101220.06
2023-05-19T11:58:05.023Z,101235.84
2023-05-19T12:03:00.418Z,101116.00
2023-05-19T12:07:54.152Z,101217.81
2023-05-19T12:12:47.363Z,101213.72
2023-05-19T12:17:40.599Z,101205.63
2023-05-19T12:22:35.770Z,101133.47
2023-05-19T12:27:36.542Z,101158.44
2023-05-19T12:32:32.231Z,101158.69
2023-05-19T12:37:30.153Z,101134.66
2023-05-19T12:42:25.305Z,101188.25
2023-05-19T12:47:19.910Z,101167.91
2023-05-19T12:52:15.343Z,101106.53
2023-05-19T12:57:08.977Z,101115.47
2023-05-19T13:02:04.465Z,101102.50
2023-05-19T13:06:57.708Z,101158.19
2023-05-19T13:11:52.289Z,101116.63
2023-05-19T13:16:51.028Z,101096.34
2023-05-19T13:21:49.924Z,101176.94
2023-05-19T13:26:43.355Z,101095.41
2023-05-19T13:31:36.823Z,101111.13
2023-05-19T13:36:30.248Z,101101.59
2023-05-19T13:41:30.414Z,101194.25
2023-05-19T13:46:36.388Z,101164.97
2023-05-19T13:51:36.850Z,101201.56
2023-05-19T13:56:31.585Z,101202.91
2023-05-19T14:01:26.407Z,101134.66
2023-05-19T14:06:19.938Z,101223.31
2023-05-19T14:11:19.652Z,101163.69
2023-05-19T14:16:14.349Z,101110.56
2023-05-19T14:21:07.589Z,101234.34
2023-05-19T14:26:01.305Z,101293.78
2023-05-19T14:30:55.142Z,101249.38
2023-05-19T14:35:49.732Z,101206.16
2023-05-19T14:40:43.343Z,101305.31
2023-05-19T14:45:39.110Z,101317.31
2023-05-19T14:50:34.275Z,101182.28
2023-05-19T14:55:28.998Z,101177.22
2023-05-19T15:00:22.314Z,101296.31
2023-05-19T15:05:15.503Z,101288.03
2023-05-19T15:10:09.563Z,101253.38
2023-05-19T15:15:05.198Z,101293.69
2023-05-19T15:19:58.540Z,101293.34
2023-05-19T15:24:52.435Z,101357.88
2023-05-19T15:29:45.717Z,101312.94
2023-05-19T15:34:40.334Z,101263.97
2023-05-19T15:39:33.792Z,101379.31
2023-05-19T15:44:28.929Z,101382.44
2023-05-19T15:49:22.794Z,101274.78
2023-05-19T15:54:17.622Z,101275.63
2023-05-19T15:59:10.812Z,101341.91
2023-05-19T16:04:04.519Z,101274.56
2023-05-19T16:08:58.258Z,101359.81
2023-05-19T16:13:55.910Z,101259.13
2023-05-19T16:18:49.504Z,101235.03
2023-05-19T16:23:42.788Z,101334.09
2023-05-19T16:28:36.043Z,101268.47
2023-05-19T16:33:30.709Z,101300.50
2023-05-19T16:38:23.919Z,101340.91
2023-05-19T16:43:17.245Z,101274.41
2023-05-19T16:48:10.576Z,101268.47
2023-05-19T16:53:11.186Z,101341.22
2023-05-19T16:58:24.126Z,101064.19
2023-05-19T17:03:23.269Z,101172.56
2023-05-19T17:08:35.969Z,101396.78
2023-05-19T17:14:03.260Z,101364.72
2023-05-19T17:19:02.408Z,101414.03
2023-05-19T17:24:13.292Z,101234.94
2023-05-19T17:29:19.065Z,101411.13
2023-05-19T17:34:12.375Z,101399.16
2023-05-19T17:39:06.999Z,101352.75
2023-05-19T17:44:00.817Z,101389.50
2023-05-19T17:48:54.028Z,101351.72
2023-05-19T17:53:47.826Z,101358.31
2023-05-19T17:58:44.308Z,101306.88
2023-05-19T18:03:38.200Z,101337.72
2023-05-19T18:08:32.363Z,101369.19
2023-05-19T18:13:26.233Z,101313.34
2023-05-19T18:18:20.860Z,101415.50
2023-05-19T18:23:16.761Z,101328.75
2023-05-19T18:28:10.026Z,101436.13
2023-05-19T18:33:07.429Z,101393.31
2023-05-19T18:38:02.089Z,101421.75
2023-05-19T18:42:55.380Z,101450.78
2023-05-19T18:47:48.914Z,101448.44
2023-05-19T18:52:42.387Z,101420.75
2023-05-19T18:57:41.320Z,101398.72
2023-05-19T19:02:34.630Z,101454.53
2023-05-19T19:07:28.056Z,101461.09
2023-05-19T19:12:21.408Z,101425.78
2023-05-19T19:17:19.433Z,101454.91
2023-05-19T19:22:12.825Z,101415.44
2023-05-19T19:27:06.714Z,101310.59
2023-05-19T19:32:00.027Z,101469.88
2023-05-19T19:36:54.805Z,101495.19
2023-05-19T19:41:48.053Z,101492.97
2023-05-19T19:46:41.428Z,101503.00
2023-05-19T19:51:35.480Z,101384.34
2023-05-19T19:56:30.093Z,101501.72
2023-05-19T20:01:27.620Z,101497.31
2023-05-19T20:06:21.456Z,101459.72
2023-05-19T20:11:14.652Z,101461.78
2023-05-19T20:16:09.764Z,101405.66
2023-05-19T20:21:02.999Z,101420.94
2023-05-19T20:26:11.063Z,101447.19
2023-05-19T20:31:06.584Z,101457.72
2023-05-19T20:36:01.221Z,101459.09
2023-05-19T20:40:55.163Z,101374.72
2023-05-19T20:45:51.556Z,101382.72
2023-05-19T20:50:44.834Z,101426.16
2023-05-19T20:55:39.812Z,101487.88
2023-05-19T21:00:33.362Z,101438.75
2023-05-19T21:05:27.068Z,101508.16
2023-05-19T21:10:20.351Z,101509.66
2023-05-19T21:15:15.172Z,101438.84
2023-05-19T21:20:09.697Z,101519.25
2023-05-19T21:25:03.042Z,101521.44
2023-05-19T21:29:56.299Z,101530.84
2023-05-19T21:34:50.956Z,101382.25
2023-05-19T21:39:44.422Z,101336.66
2023-05-19T21:44:37.617Z,101393.78
2023-05-19T21:49:31.363Z,101335.38
2023-05-19T21:54:26.082Z,101355.72
2023-05-19T21:59:23.275Z,101529.56
2023-05-19T22:04:18.520Z,101432.41
2023-05-19T22:09:12.074Z,101358.59
2023-05-19T22:14:06.990Z,101530.28
2023-05-19T22:19:00.327Z,101521.38
2023-05-19T22:23:53.726Z,101508.69
2023-05-19T22:28:46.868Z,101393.94
2023-05-19T22:33:41.460Z,101474.75
2023-05-19T22:38:34.742Z,101503.16
2023-05-19T22:43:27.953Z,101502.31
2023-05-19T22:48:21.148Z,101418.28
2023-05-19T22:53:15.630Z,101453.84
2023-05-19T22:58:09.131Z,101512.84
2023-05-19T23:03:02.362Z,101508.31
2023-05-19T23:07:55.651Z,101360.38
2023-05-19T23:12:51.573Z,101507.41
2023-05-19T23:17:44.813Z,101502.69
2023-05-19T23:22:38.025Z,101498.28
2023-05-19T23:27:31.163Z,101389.09
2023-05-19T23:32:25.821Z,101425.28
2023-05-19T23:37:19.029Z,101493.78
2023-05-19T23:42:13.230Z,101290.47
2023-05-19T23:47:07.063Z,101472.09
2023-05-19T23:52:01.758Z,101467.69
2023-05-19T23:56:55.904Z,101473.78
